createdAt,value
2019-05-26T00:00:48.007Z,0
2019-05-26T00:01:48.004Z,0
2019-05-26T00:02:47.766Z,0
2019-05-26T00:03:47.768Z,0
2019-05-26T00:04:48.014Z,0
2019-05-26T00:05:47.744Z,0
2019-05-26T00:06:47.482Z,0
2019-05-26T00:07:47.991Z,0
2019-05-26T00:08:48.045Z,0
2019-05-26T00:09:53.768Z,0
2019-05-26T00:10:51.067Z,0
2019-05-26T00:11:47.712Z,0
2019-05-26T00:12:47.969Z,0
2019-05-26T00:13:47.712Z,0
2019-05-26T00:14:47.705Z,0
2019-05-26T00:15:47.702Z,0
2019-05-26T00:16:47.471Z,0
2019-05-26T00:17:47.448Z,0
2019-05-26T00:18:47.692Z,0
2019-05-26T00:19:47.450Z,0
2019-05-26T00:20:50.713Z,0
2019-05-26T00:21:47.941Z,0
2019-05-26T00:22:47.910Z,0
2019-05-26T00:23:47.904Z,0
2019-05-26T00:24:47.407Z,0
2019-05-26T00:25:47.410Z,0
2019-05-26T00:26:47.685Z,0
2019-05-26T00:27:47.639Z,0
2019-05-26T00:28:47.650Z,0
2019-05-26T00:29:47.698Z,0
2019-05-26T00:30:48.065Z,0
2019-05-26T00:31:50.445Z,0
2019-05-26T00:32:47.684Z,0
2019-05-26T00:33:47.633Z,0
2019-05-26T00:34:47.875Z,0
2019-05-26T00:35:47.884Z,0
2019-05-26T00:36:47.864Z,0
2019-05-26T00:37:55.711Z,0
2019-05-26T00:38:47.624Z,0
2019-05-26T00:39:47.368Z,0
2019-05-26T00:40:47.861Z,0
2019-05-26T00:41:50.645Z,0
2019-05-26T00:42:49.106Z,0
2019-05-26T00:43:47.608Z,0
2019-05-26T00:44:47.838Z,0
2019-05-26T00:45:47.683Z,0
2019-05-26T00:46:47.582Z,0
2019-05-26T00:47:47.335Z,0
2019-05-26T00:48:47.573Z,0
2019-05-26T00:49:47.815Z,0
2019-05-26T00:50:47.881Z,0
2019-05-26T00:51:47.568Z,0
2019-05-26T00:52:50.100Z,0
2019-05-26T00:53:53.820Z,0
2019-05-26T00:54:47.350Z,0
2019-05-26T00:55:47.555Z,0
2019-05-26T00:56:47.281Z,0
2019-05-26T00:57:47.274Z,0
2019-05-26T00:58:47.788Z,0
2019-05-26T00:59:47.577Z,0
2019-05-26T01:00:47.783Z,0
2019-05-26T01:01:47.265Z,0
2019-05-26T01:02:47.269Z,0
2019-05-26T01:03:53.789Z,0
2019-05-26T01:04:47.271Z,0
2019-05-26T01:05:47.511Z,0
2019-05-26T01:06:47.495Z,0
2019-05-26T01:07:47.250Z,0
2019-05-26T01:08:47.533Z,0
2019-05-26T01:09:47.301Z,0
2019-05-26T01:10:47.724Z,0
2019-05-26T01:11:47.480Z,0
2019-05-26T01:12:47.504Z,0
2019-05-26T01:13:49.127Z,0
2019-05-26T01:14:50.285Z,0
2019-05-26T01:15:47.224Z,0
2019-05-26T01:16:46.973Z,0
2019-05-26T01:17:46.961Z,0
2019-05-26T01:18:47.466Z,0
2019-05-26T01:19:47.747Z,0
2019-05-26T01:20:47.441Z,0
2019-05-26T01:21:47.703Z,0
2019-05-26T01:22:47.469Z,0
2019-05-26T01:23:47.701Z,0
2019-05-26T01:24:52.291Z,0
2019-05-26T01:25:50.453Z,0
2019-05-26T01:26:47.428Z,0
2019-05-26T01:27:47.426Z,0
2019-05-26T01:28:47.404Z,0
2019-05-26T01:29:47.668Z,0
2019-05-26T01:30:47.660Z,0
2019-05-26T01:31:47.666Z,0
2019-05-26T01:32:47.150Z,0
2019-05-26T01:33:47.418Z,0
2019-05-26T01:34:47.647Z,0
2019-05-26T01:35:50.178Z,0
2019-05-26T01:36:47.648Z,0
2019-05-26T01:37:47.379Z,0
2019-05-26T01:38:47.120Z,0
2019-05-26T01:39:48.329Z,0
2019-05-26T01:40:47.378Z,0
2019-05-26T01:41:47.121Z,0
2019-05-26T01:42:47.348Z,0
2019-05-26T01:43:47.662Z,0
2019-05-26T01:44:47.387Z,0
2019-05-26T01:45:47.372Z,0
2019-05-26T01:46:48.754Z,0
2019-05-26T01:47:47.330Z,0
2019-05-26T01:48:47.336Z,0
2019-05-26T01:49:47.577Z,0
2019-05-26T01:50:47.325Z,0
2019-05-26T01:51:47.324Z,0
2019-05-26T01:52:47.106Z,0
2019-05-26T01:53:47.578Z,0
2019-05-26T01:54:48.322Z,0
2019-05-26T01:55:47.074Z,0
2019-05-26T01:56:50.325Z,0
2019-05-26T01:57:53.678Z,0
2019-05-26T01:58:47.536Z,0
2019-05-26T01:59:47.038Z,0
2019-05-26T02:00:47.332Z,0
2019-05-26T02:01:47.533Z,0
2019-05-26T02:02:47.273Z,0
2019-05-26T02:03:47.511Z,0
2019-05-26T02:04:47.340Z,0
2019-05-26T02:05:47.272Z,0
2019-05-26T02:06:47.516Z,0
2019-05-26T02:07:53.298Z,0
2019-05-26T02:08:50.275Z,0
2019-05-26T02:09:47.496Z,0
2019-05-26T02:10:47.276Z,0
2019-05-26T02:11:47.486Z,0
2019-05-26T02:12:47.231Z,0
2019-05-26T02:13:47.279Z,0
2019-05-26T02:14:46.969Z,0
2019-05-26T02:15:47.205Z,0
2019-05-26T02:16:47.196Z,0
2019-05-26T02:17:47.514Z,0
2019-05-26T02:18:50.230Z,0
2019-05-26T02:19:47.189Z,0
2019-05-26T02:20:47.437Z,0
2019-05-26T02:21:47.186Z,0
2019-05-26T02:22:47.180Z,0
2019-05-26T02:23:47.422Z,0
2019-05-26T02:24:47.418Z,0
2019-05-26T02:25:47.504Z,0
2019-05-26T02:26:47.156Z,0
2019-05-26T02:27:46.925Z,0
2019-05-26T02:28:47.534Z,0
2019-05-26T02:29:49.925Z,0
2019-05-26T02:30:47.401Z,0
2019-05-26T02:31:47.193Z,0
2019-05-26T02:32:46.894Z,0
2019-05-26T02:33:47.430Z,0
2019-05-26T02:34:46.894Z,0
2019-05-26T02:35:47.473Z,0
2019-05-26T02:36:47.172Z,0
2019-05-26T02:37:46.864Z,0
2019-05-26T02:39:08.488Z,0
2019-05-26T02:39:50.403Z,0
2019-05-26T02:40:52.059Z,0
2019-05-26T02:41:47.359Z,0
2019-05-26T02:42:46.860Z,0
2019-05-26T02:43:47.108Z,0
2019-05-26T02:44:47.365Z,0
2019-05-26T02:45:47.332Z,0
2019-05-26T02:46:47.130Z,4
2019-05-26T02:47:46.877Z,4
2019-05-26T02:48:47.386Z,4
2019-05-26T02:49:47.071Z,0
2019-05-26T02:50:49.492Z,0
2019-05-26T02:51:53.354Z,4
2019-05-26T02:52:46.817Z,4
2019-05-26T02:53:46.894Z,4
2019-05-26T02:54:47.329Z,4
2019-05-26T02:55:46.867Z,4
2019-05-26T02:56:47.314Z,4
2019-05-26T02:57:47.053Z,4
2019-05-26T02:58:47.052Z,8
2019-05-26T02:59:47.042Z,8
2019-05-26T03:00:47.364Z,8
2019-05-26T03:02:09.593Z,12
2019-05-26T03:02:46.769Z,8
2019-05-26T03:03:47.252Z,12
2019-05-26T03:04:47.259Z,16
2019-05-26T03:05:47.267Z,16
2019-05-26T03:06:46.823Z,20
2019-05-26T03:07:46.805Z,24
2019-05-26T03:08:47.264Z,24
2019-05-26T03:09:46.739Z,28
2019-05-26T03:10:48.358Z,32
2019-05-26T03:11:48.146Z,36
2019-05-26T03:12:50.288Z,40
2019-05-26T03:13:46.975Z,44
2019-05-26T03:14:46.958Z,52
2019-05-26T03:15:46.533Z,60
2019-05-26T03:16:46.974Z,68
2019-05-26T03:17:46.999Z,72
2019-05-26T03:18:46.942Z,84
2019-05-26T03:19:47.198Z,92
2019-05-26T03:20:46.734Z,104
2019-05-26T03:21:46.931Z,116
2019-05-26T03:22:50.280Z,128
2019-05-26T03:23:49.701Z,140
2019-05-26T03:24:46.685Z,156
2019-05-26T03:25:46.910Z,168
2019-05-26T03:26:46.909Z,188
2019-05-26T03:27:46.431Z,204
2019-05-26T03:28:47.139Z,224
2019-05-26T03:29:47.138Z,240
2019-05-26T03:30:47.191Z,260
2019-05-26T03:31:47.152Z,280
2019-05-26T03:32:46.932Z,308
2019-05-26T03:33:50.330Z,332
2019-05-26T03:34:46.923Z,360
2019-05-26T03:35:46.990Z,388
2019-05-26T03:36:46.862Z,412
2019-05-26T03:37:46.865Z,444
2019-05-26T03:38:46.883Z,480
2019-05-26T03:39:52.422Z,512
2019-05-26T03:40:46.850Z,544
2019-05-26T03:41:47.014Z,580
2019-05-26T03:42:46.609Z,620
2019-05-26T03:43:46.789Z,660
2019-05-26T03:44:49.870Z,704
2019-05-26T03:45:46.827Z,744
2019-05-26T03:46:47.067Z,788
2019-05-26T03:47:46.800Z,832
2019-05-26T03:48:47.063Z,880
2019-05-26T03:49:46.792Z,932
2019-05-26T03:50:47.041Z,980
2019-05-26T03:51:46.794Z,1028
2019-05-26T03:52:46.540Z,1080
2019-05-26T03:53:46.956Z,1128
2019-05-26T03:54:50.074Z,1196
2019-05-26T03:55:53.311Z,1260
2019-05-26T03:56:46.579Z,1320
2019-05-26T03:57:46.751Z,1388
2019-05-26T03:58:46.762Z,1460
2019-05-26T03:59:46.988Z,1536
2019-05-26T04:00:46.801Z,1640
2019-05-26T04:01:46.739Z,1724
2019-05-26T04:02:46.243Z,1824
2019-05-26T04:03:46.481Z,1836
2019-05-26T04:04:46.733Z,1904
2019-05-26T04:05:49.805Z,2040
2019-05-26T04:06:52.721Z,2084
2019-05-26T04:07:46.213Z,2244
2019-05-26T04:08:46.856Z,2244
2019-05-26T04:10:10.971Z,2340
2019-05-26T04:10:46.938Z,2636
2019-05-26T04:11:50.267Z,2724
2019-05-26T04:12:46.948Z,2616
2019-05-26T04:13:46.424Z,2820
2019-05-26T04:14:46.728Z,2848
2019-05-26T04:15:46.723Z,2672
2019-05-26T04:16:49.989Z,2840
2019-05-26T04:17:46.664Z,2748
2019-05-26T04:18:46.966Z,2784
2019-05-26T04:19:46.409Z,3344
2019-05-26T04:20:50.402Z,2972
2019-05-26T04:21:46.426Z,3272
2019-05-26T04:22:46.637Z,3084
2019-05-26T04:23:46.659Z,3188
2019-05-26T04:24:46.630Z,3224
2019-05-26T04:25:46.920Z,3484
2019-05-26T04:26:48.312Z,3044
2019-05-26T04:27:49.906Z,3680
2019-05-26T04:28:46.617Z,3076
2019-05-26T04:29:46.610Z,3056
2019-05-26T04:30:46.868Z,3088
2019-05-26T04:31:46.677Z,2956
2019-05-26T04:32:46.625Z,3016
2019-05-26T04:33:46.860Z,2964
2019-05-26T04:34:46.884Z,2964
2019-05-26T04:35:46.611Z,3016
2019-05-26T04:36:46.368Z,3184
2019-05-26T04:37:49.867Z,3176
2019-05-26T04:38:49.662Z,3208
2019-05-26T04:39:46.841Z,3336
2019-05-26T04:40:46.845Z,3568
2019-05-26T04:41:46.721Z,3500
2019-05-26T04:42:46.848Z,3396
2019-05-26T04:43:46.580Z,3344
2019-05-26T04:44:46.817Z,3332
2019-05-26T04:45:46.615Z,3232
2019-05-26T04:46:46.066Z,3400
2019-05-26T04:47:46.579Z,3504
2019-05-26T04:48:49.916Z,3556
2019-05-26T04:49:52.905Z,3480
2019-05-26T04:50:46.319Z,3468
2019-05-26T04:51:46.797Z,3428
2019-05-26T04:53:11.217Z,3520
2019-05-26T04:53:46.835Z,3416
2019-05-26T04:54:46.529Z,3428
2019-05-26T04:55:46.789Z,3260
2019-05-26T04:56:46.818Z,3428
2019-05-26T04:57:46.550Z,3376
2019-05-26T04:58:46.778Z,3436
2019-05-26T04:59:49.301Z,3484
2019-05-26T05:00:46.775Z,3608
2019-05-26T05:01:46.572Z,4060
2019-05-26T05:02:46.496Z,3860
2019-05-26T05:03:46.540Z,4120
2019-05-26T05:04:46.249Z,4472
2019-05-26T05:05:46.491Z,4488
2019-05-26T05:06:46.493Z,4460
2019-05-26T05:07:46.248Z,4440
2019-05-26T05:08:46.481Z,4816
2019-05-26T05:09:47.644Z,4684
2019-05-26T05:10:52.580Z,5156
2019-05-26T05:11:46.478Z,5292
2019-05-26T05:12:46.217Z,5880
2019-05-26T05:13:46.464Z,5668
2019-05-26T05:14:46.464Z,5212
2019-05-26T05:15:46.220Z,5968
2019-05-26T05:16:46.693Z,5900
2019-05-26T05:17:46.474Z,6072
2019-05-26T05:18:46.734Z,5752
2019-05-26T05:19:46.751Z,6152
2019-05-26T05:20:52.488Z,7084
2019-05-26T05:21:49.220Z,8368
2019-05-26T05:22:46.466Z,6900
2019-05-26T05:23:46.184Z,9604
2019-05-26T05:24:46.665Z,7748
2019-05-26T05:25:46.448Z,8400
2019-05-26T05:26:46.660Z,8556
2019-05-26T05:27:46.237Z,7608
2019-05-26T05:28:46.656Z,7332
2019-05-26T05:29:46.651Z,8328
2019-05-26T05:30:46.403Z,7364
2019-05-26T05:31:49.700Z,7636
2019-05-26T05:32:46.446Z,9620
2019-05-26T05:33:46.657Z,10140
2019-05-26T05:34:46.144Z,11252
2019-05-26T05:35:46.392Z,11280
2019-05-26T05:36:46.464Z,11172
2019-05-26T05:37:46.393Z,11664
2019-05-26T05:38:46.389Z,11476
2019-05-26T05:39:46.406Z,11756
2019-05-26T05:41:03.040Z,11828
2019-05-26T05:41:46.997Z,6928
2019-05-26T05:42:50.836Z,6708
2019-05-26T05:43:46.399Z,6908
2019-05-26T05:44:46.159Z,7584
2019-05-26T05:45:46.408Z,12388
2019-05-26T05:46:46.162Z,12488
2019-05-26T05:47:46.155Z,12692
2019-05-26T05:48:46.197Z,12824
2019-05-26T05:49:46.407Z,12836
2019-05-26T05:50:46.526Z,12892
2019-05-26T05:51:46.648Z,12960
2019-05-26T05:52:49.697Z,13032
2019-05-26T05:53:52.929Z,13120
2019-05-26T05:54:46.412Z,8636
2019-05-26T05:55:46.397Z,9044
2019-05-26T05:56:46.406Z,9504
2019-05-26T05:57:46.395Z,9904
2019-05-26T05:58:46.397Z,10364
2019-05-26T05:59:46.423Z,10784
2019-05-26T06:00:46.658Z,11188
2019-05-26T06:01:46.699Z,11488
2019-05-26T06:02:46.397Z,12004
2019-05-26T06:03:47.583Z,13680
2019-05-26T06:04:49.452Z,13772
2019-05-26T06:05:46.190Z,12644
2019-05-26T06:06:46.430Z,12884
2019-05-26T06:07:45.917Z,13008
2019-05-26T06:08:46.417Z,13176
2019-05-26T06:09:46.171Z,13292
2019-05-26T06:10:46.186Z,13376
2019-05-26T06:11:46.197Z,13452
2019-05-26T06:12:46.465Z,13564
2019-05-26T06:13:46.440Z,13540
2019-05-26T06:14:49.815Z,14396
2019-05-26T06:15:45.962Z,14480
2019-05-26T06:16:46.465Z,13792
2019-05-26T06:17:46.486Z,13864
2019-05-26T06:18:46.466Z,13852
2019-05-26T06:19:46.501Z,13900
2019-05-26T06:20:46.728Z,13952
2019-05-26T06:21:46.458Z,14152
2019-05-26T06:22:46.250Z,14040
2019-05-26T06:23:46.259Z,14232
2019-05-26T06:24:46.831Z,14868
2019-05-26T06:25:49.531Z,14720
2019-05-26T06:26:46.238Z,14352
2019-05-26T06:27:46.263Z,14432
2019-05-26T06:28:46.489Z,14492
2019-05-26T06:30:02.689Z,14420
2019-05-26T06:30:46.500Z,14444
2019-05-26T06:31:47.223Z,14296
2019-05-26T06:32:46.756Z,14424
2019-05-26T06:33:46.536Z,14820
2019-05-26T06:34:46.279Z,14900
2019-05-26T06:35:49.404Z,14460
2019-05-26T06:36:49.321Z,14528
2019-05-26T06:37:46.296Z,14380
2019-05-26T06:38:46.548Z,14576
2019-05-26T06:39:46.804Z,14512
2019-05-26T06:40:46.304Z,14684
2019-05-26T06:41:46.542Z,14664
2019-05-26T06:42:46.074Z,14740
2019-05-26T06:43:46.801Z,15272
2019-05-26T06:45:00.634Z,13808
2019-05-26T06:45:46.819Z,14292
2019-05-26T06:46:48.226Z,14944
2019-05-26T06:47:46.108Z,15016
2019-05-26T06:48:46.578Z,15036
2019-05-26T06:49:46.833Z,14988
2019-05-26T06:50:46.850Z,14800
2019-05-26T06:51:46.612Z,14656
2019-05-26T06:52:46.607Z,14868
2019-05-26T06:53:46.612Z,14692
2019-05-26T06:54:46.867Z,14660
2019-05-26T06:55:46.870Z,14276
2019-05-26T06:56:46.626Z,14228
2019-05-26T06:57:49.906Z,13860
2019-05-26T06:58:46.876Z,13660
2019-05-26T06:59:46.384Z,13524
2019-05-26T07:00:46.632Z,13580
2019-05-26T07:01:46.647Z,13540
2019-05-26T07:02:46.834Z,13228
2019-05-26T07:03:46.649Z,12944
2019-05-26T07:04:46.408Z,12596
2019-05-26T07:05:46.897Z,12668
2019-05-26T07:06:46.691Z,13244
2019-05-26T07:07:47.834Z,13160
2019-05-26T07:08:49.699Z,13268
2019-05-26T07:09:46.683Z,13580
2019-05-26T07:10:46.916Z,13868
2019-05-26T07:12:07.975Z,14500
2019-05-26T07:12:46.944Z,14664
2019-05-26T07:13:46.767Z,14636
2019-05-26T07:14:46.437Z,14112
2019-05-26T07:15:46.953Z,14196
2019-05-26T07:16:46.696Z,14500
2019-05-26T07:17:46.721Z,14360
2019-05-26T07:18:48.883Z,14528
2019-05-26T07:19:49.797Z,14384
2019-05-26T07:20:46.735Z,14008
2019-05-26T07:21:46.965Z,14064
2019-05-26T07:22:46.718Z,13608
2019-05-26T07:23:46.482Z,12912
2019-05-26T07:24:46.741Z,13284
2019-05-26T07:25:46.988Z,13496
2019-05-26T07:26:46.749Z,13292
2019-05-26T07:27:46.746Z,14136
2019-05-26T07:28:46.794Z,14576
2019-05-26T07:29:49.563Z,14524
2019-05-26T07:30:46.506Z,14504
2019-05-26T07:31:47.004Z,15300
2019-05-26T07:32:46.632Z,15336
2019-05-26T07:33:47.058Z,15348
2019-05-26T07:34:47.058Z,15520
2019-05-26T07:35:49.747Z,15532
2019-05-26T07:36:46.808Z,15052
2019-05-26T07:37:46.548Z,15216
2019-05-26T07:38:47.047Z,15108
2019-05-26T07:39:47.044Z,14936
2019-05-26T07:40:53.067Z,14764
2019-05-26T07:41:46.803Z,14336
2019-05-26T07:42:47.063Z,14380
2019-05-26T07:43:47.127Z,13780
2019-05-26T07:44:46.828Z,14252
2019-05-26T07:45:46.850Z,13776
2019-05-26T07:46:46.846Z,13944
2019-05-26T07:47:46.584Z,13620
2019-05-26T07:48:46.851Z,13504
2019-05-26T07:49:47.114Z,13684
2019-05-26T07:50:48.280Z,14372
2019-05-26T07:51:50.172Z,14324
2019-05-26T07:52:46.892Z,14116
2019-05-26T07:53:47.128Z,14088
2019-05-26T07:54:46.629Z,13988
2019-05-26T07:55:47.153Z,14136
2019-05-26T07:56:47.140Z,14008
2019-05-26T07:57:47.139Z,14244
2019-05-26T07:58:46.951Z,14356
2019-05-26T07:59:46.912Z,14176
2019-05-26T08:00:46.917Z,14200
2019-05-26T08:01:50.220Z,13944
2019-05-26T08:02:49.955Z,13720
2019-05-26T08:03:46.734Z,13680
2019-05-26T08:04:46.949Z,13576
2019-05-26T08:05:47.005Z,13544
2019-05-26T08:06:46.706Z,13560
2019-05-26T08:07:46.711Z,13344
2019-05-26T08:08:47.239Z,13188
2019-05-26T08:09:46.736Z,13228
2019-05-26T08:10:47.235Z,13096
2019-05-26T08:11:47.240Z,12924
2019-05-26T08:12:49.789Z,13188
2019-05-26T08:13:50.597Z,12968
2019-05-26T08:14:47.274Z,12828
2019-05-26T08:15:47.134Z,12976
2019-05-26T08:16:47.284Z,12848
2019-05-26T08:17:47.074Z,13116
2019-05-26T08:18:46.798Z,13008
2019-05-26T08:19:47.314Z,12968
2019-05-26T08:20:46.817Z,13008
2019-05-26T08:21:47.057Z,13084
2019-05-26T08:22:46.825Z,12900
2019-05-26T08:23:53.632Z,12896
2019-05-26T08:24:47.335Z,12800
2019-05-26T08:25:47.203Z,12576
2019-05-26T08:26:47.352Z,12536
2019-05-26T08:27:46.857Z,12660
2019-05-26T08:28:47.094Z,12632
2019-05-26T08:29:47.372Z,12544
2019-05-26T08:30:47.120Z,12304
2019-05-26T08:31:46.887Z,12132
2019-05-26T08:32:46.895Z,12164
2019-05-26T08:33:48.805Z,11968
2019-05-26T08:34:50.431Z,11752
2019-05-26T08:35:47.008Z,12228
2019-05-26T08:36:47.152Z,12364
2019-05-26T08:37:47.172Z,12120
2019-05-26T08:38:47.422Z,11852
2019-05-26T08:39:50.807Z,11732
2019-05-26T08:40:47.429Z,11572
2019-05-26T08:41:47.196Z,11640
2019-05-26T08:42:51.593Z,11416
2019-05-26T08:43:47.469Z,11276
2019-05-26T08:44:51.761Z,11244
2019-05-26T08:45:50.284Z,11228
2019-05-26T08:46:47.235Z,10972
2019-05-26T08:47:47.238Z,11016
2019-05-26T08:48:47.486Z,11472
2019-05-26T08:49:46.991Z,11756
2019-05-26T08:50:47.545Z,11576
2019-05-26T08:51:47.509Z,11124
2019-05-26T08:52:47.009Z,11004
2019-05-26T08:53:46.768Z,10808
2019-05-26T08:54:47.515Z,11088
2019-05-26T08:55:50.332Z,11064
2019-05-26T08:56:47.303Z,11020
2019-05-26T08:57:47.555Z,10836
2019-05-26T08:58:47.558Z,10892
2019-05-26T08:59:47.060Z,10760
2019-05-26T09:00:47.591Z,10860
2019-05-26T09:01:47.064Z,10952
2019-05-26T09:02:46.834Z,10956
2019-05-26T09:03:47.325Z,11104
2019-05-26T09:04:47.081Z,10952
2019-05-26T09:05:47.611Z,11108
2019-05-26T09:06:54.460Z,11112
2019-05-26T09:07:47.601Z,10984
2019-05-26T09:08:47.353Z,10952
2019-05-26T09:09:47.607Z,10876
2019-05-26T09:10:47.355Z,10820
2019-05-26T09:11:47.125Z,10884
2019-05-26T09:13:02.518Z,10828
2019-05-26T09:13:47.115Z,10956
2019-05-26T09:14:47.668Z,10976
2019-05-26T09:15:46.876Z,11008
2019-05-26T09:16:48.810Z,11032
2019-05-26T09:17:50.464Z,11072
2019-05-26T09:18:47.655Z,11080
2019-05-26T09:19:47.165Z,10944
2019-05-26T09:20:47.402Z,11068
2019-05-26T09:21:47.429Z,11024
2019-05-26T09:22:47.410Z,10980
2019-05-26T09:23:47.449Z,10976
2019-05-26T09:24:47.160Z,10948
2019-05-26T09:25:51.228Z,11184
2019-05-26T09:26:47.675Z,11092
2019-05-26T09:27:49.974Z,11308
2019-05-26T09:28:50.472Z,11324
2019-05-26T09:29:47.178Z,11224
2019-05-26T09:30:47.445Z,11128
2019-05-26T09:31:47.683Z,11312
2019-05-26T09:32:47.440Z,11164
2019-05-26T09:33:47.684Z,10976
2019-05-26T09:34:47.449Z,10896
2019-05-26T09:35:47.690Z,10828
2019-05-26T09:36:47.203Z,7216
2019-05-26T09:37:47.449Z,11320
2019-05-26T09:38:50.252Z,11156
2019-05-26T09:39:47.460Z,9860
2019-05-26T09:40:47.720Z,11576
2019-05-26T09:41:47.475Z,11616
2019-05-26T09:42:47.010Z,11420
2019-05-26T09:43:47.223Z,11124
2019-05-26T09:44:47.477Z,11232
2019-05-26T09:45:47.480Z,11216
2019-05-26T09:46:47.732Z,11192
2019-05-26T09:47:47.265Z,11260
2019-05-26T09:48:47.452Z,11184
2019-05-26T09:49:49.648Z,11244
2019-05-26T09:50:47.497Z,11212
2019-05-26T09:51:47.250Z,10980
2019-05-26T09:52:47.749Z,11084
2019-05-26T09:54:00.712Z,11192
2019-05-26T09:54:47.271Z,11132
2019-05-26T09:55:47.279Z,11316
2019-05-26T09:56:47.771Z,11052
2019-05-26T09:57:47.516Z,11072
2019-05-26T09:58:47.266Z,11084
2019-05-26T09:59:50.303Z,11136
2019-05-26T10:00:53.579Z,11172
2019-05-26T10:01:47.524Z,11216
2019-05-26T10:02:47.058Z,11196
2019-05-26T10:03:47.712Z,10992
2019-05-26T10:04:47.296Z,10860
2019-05-26T10:05:47.541Z,11016
2019-05-26T10:06:47.563Z,10496
2019-05-26T10:07:47.547Z,8808
2019-05-26T10:08:47.870Z,10376
2019-05-26T10:09:47.569Z,9152
2019-05-26T10:10:53.832Z,10520
2019-05-26T10:11:50.609Z,8960
2019-05-26T10:12:47.412Z,7984
2019-05-26T10:13:47.597Z,8668
2019-05-26T10:14:50.606Z,10356
2019-05-26T10:15:47.577Z,10352
2019-05-26T10:16:47.580Z,7996
2019-05-26T10:17:47.378Z,7776
2019-05-26T10:18:47.828Z,7504
2019-05-26T10:19:47.940Z,7360
2019-05-26T10:20:47.876Z,7348
2019-05-26T10:21:50.901Z,7428
2019-05-26T10:22:47.710Z,8232
2019-05-26T10:23:47.360Z,7788
2019-05-26T10:24:47.618Z,8088
2019-05-26T10:25:47.862Z,8160
2019-05-26T10:26:47.877Z,8184
2019-05-26T10:27:47.363Z,9208
2019-05-26T10:28:47.607Z,9792
2019-05-26T10:29:47.389Z,8960
2019-05-26T10:30:48.011Z,8776
2019-05-26T10:31:47.999Z,9632
2019-05-26T10:32:50.469Z,11844
2019-05-26T10:33:47.630Z,11896
2019-05-26T10:34:47.380Z,11888
2019-05-26T10:35:47.892Z,12040
2019-05-26T10:36:47.409Z,12048
2019-05-26T10:37:47.679Z,12116
2019-05-26T10:38:47.906Z,12656
2019-05-26T10:39:49.753Z,12984
2019-05-26T10:40:47.642Z,13044
2019-05-26T10:41:47.648Z,13104
2019-05-26T10:42:50.225Z,12828
2019-05-26T10:43:56.047Z,12924
2019-05-26T10:44:47.667Z,13176
2019-05-26T10:45:47.889Z,13268
2019-05-26T10:46:47.667Z,11372
2019-05-26T10:47:47.441Z,11260
2019-05-26T10:48:47.666Z,13284
2019-05-26T10:49:47.692Z,11044
2019-05-26T10:50:47.924Z,11040
2019-05-26T10:51:47.670Z,10380
2019-05-26T10:52:47.527Z,10452
2019-05-26T10:53:48.625Z,10460
2019-05-26T10:54:53.486Z,10388
2019-05-26T10:55:47.942Z,10308
2019-05-26T10:56:47.677Z,10276
2019-05-26T10:57:47.727Z,10168
2019-05-26T10:58:47.452Z,10016
2019-05-26T10:59:47.941Z,9948
2019-05-26T11:00:47.499Z,9768
2019-05-26T11:01:47.701Z,9560
2019-05-26T11:02:47.616Z,9404
2019-05-26T11:03:47.970Z,9408
2019-05-26T11:04:50.502Z,9504
2019-05-26T11:05:47.725Z,9664
2019-05-26T11:06:48.011Z,9824
2019-05-26T11:07:47.493Z,9864
2019-05-26T11:08:47.727Z,9724
2019-05-26T11:09:47.747Z,9508
2019-05-26T11:10:47.991Z,9312
2019-05-26T11:11:47.732Z,8912
2019-05-26T11:12:47.996Z,8392
2019-05-26T11:14:01.743Z,7844
2019-05-26T11:14:47.863Z,7516
2019-05-26T11:15:52.434Z,7328
2019-05-26T11:16:47.743Z,7240
2019-05-26T11:17:47.496Z,7240
2019-05-26T11:18:47.990Z,7296
2019-05-26T11:19:47.749Z,7368
2019-05-26T11:20:47.754Z,7616
2019-05-26T11:21:47.990Z,7948
2019-05-26T11:22:48.019Z,8340
2019-05-26T11:23:47.799Z,8740
2019-05-26T11:24:48.011Z,9136
2019-05-26T11:25:51.048Z,9520
2019-05-26T11:26:49.627Z,9768
2019-05-26T11:27:47.765Z,9940
2019-05-26T11:28:48.005Z,10104
2019-05-26T11:29:47.767Z,10244
2019-05-26T11:30:47.843Z,10260
2019-05-26T11:31:47.562Z,10156
2019-05-26T11:32:47.322Z,10092
2019-05-26T11:33:47.972Z,10024
2019-05-26T11:35:02.748Z,10976
2019-05-26T11:35:47.802Z,10188
2019-05-26T11:36:50.860Z,11200
2019-05-26T11:37:54.084Z,11240
2019-05-26T11:38:47.806Z,11348
2019-05-26T11:39:47.808Z,10124
2019-05-26T11:40:48.229Z,9784
2019-05-26T11:42:10.536Z,9172
2019-05-26T11:42:51.916Z,9040
2019-05-26T11:43:48.073Z,8976
2019-05-26T11:44:47.823Z,10240
2019-05-26T11:45:49.071Z,10340
2019-05-26T11:46:47.869Z,10932
2019-05-26T11:47:54.114Z,9724
2019-05-26T11:48:48.085Z,9484
2019-05-26T11:49:47.583Z,9624
2019-05-26T11:50:47.598Z,9696
2019-05-26T11:51:47.857Z,10472
2019-05-26T11:52:47.375Z,10612
2019-05-26T11:53:47.886Z,10468
2019-05-26T11:54:47.877Z,10756
2019-05-26T11:55:47.869Z,11360
2019-05-26T11:56:47.866Z,11432
2019-05-26T11:57:49.282Z,11408
2019-05-26T11:58:51.163Z,10292
2019-05-26T11:59:55.171Z,11480
2019-05-26T12:00:48.131Z,11640
2019-05-26T12:01:47.645Z,10348
2019-05-26T12:02:47.685Z,10496
2019-05-26T12:03:47.912Z,12272
2019-05-26T12:04:47.652Z,12468
2019-05-26T12:05:47.915Z,12576
2019-05-26T12:06:48.182Z,12648
2019-05-26T12:07:47.725Z,12680
2019-05-26T12:08:50.944Z,12680
2019-05-26T12:09:50.963Z,12668
2019-05-26T12:10:47.413Z,12836
2019-05-26T12:11:47.687Z,12908
2019-05-26T12:12:47.674Z,13000
2019-05-26T12:13:47.710Z,12956
2019-05-26T12:14:48.287Z,13280
2019-05-26T12:15:47.926Z,13056
2019-05-26T12:16:51.183Z,12124
2019-05-26T12:17:47.439Z,13232
2019-05-26T12:18:48.198Z,12224
2019-05-26T12:19:51.223Z,12272
2019-05-26T12:20:47.703Z,11628
2019-05-26T12:21:47.970Z,11800
2019-05-26T12:22:47.707Z,11492
2019-05-26T12:23:47.727Z,12496
2019-05-26T12:24:47.967Z,11012
2019-05-26T12:25:48.008Z,10740
2019-05-26T12:26:48.041Z,10708
2019-05-26T12:27:48.228Z,10716
2019-05-26T12:28:47.976Z,10552
2019-05-26T12:29:47.976Z,10372
2019-05-26T12:30:49.578Z,10360
2019-05-26T12:31:47.787Z,10448
2019-05-26T12:32:48.109Z,10620
2019-05-26T12:33:48.272Z,10852
2019-05-26T12:34:48.046Z,11052
2019-05-26T12:35:48.273Z,11352
2019-05-26T12:36:48.042Z,11656
2019-05-26T12:37:50.834Z,11924
2019-05-26T12:38:47.768Z,12088
2019-05-26T12:39:48.307Z,12148
2019-05-26T12:40:49.681Z,11952
2019-05-26T12:41:50.882Z,11536
2019-05-26T12:42:47.794Z,11020
2019-05-26T12:43:48.129Z,10536
2019-05-26T12:44:57.107Z,10052
2019-05-26T12:45:48.040Z,9816
2019-05-26T12:46:48.061Z,9600
2019-05-26T12:47:47.756Z,9744
2019-05-26T12:48:47.805Z,9696
2019-05-26T12:49:48.079Z,9488
2019-05-26T12:50:48.307Z,9232
2019-05-26T12:51:51.104Z,9044
2019-05-26T12:52:50.673Z,9980
2019-05-26T12:53:47.832Z,10196
2019-05-26T12:54:48.341Z,9548
2019-05-26T12:55:48.335Z,9292
2019-05-26T12:56:47.850Z,9092
2019-05-26T12:57:47.855Z,8872
2019-05-26T12:58:47.847Z,8904
2019-05-26T12:59:48.354Z,10400
2019-05-26T13:00:59.501Z,9652
2019-05-26T13:01:48.103Z,9020
2019-05-26T13:02:51.719Z,8496
2019-05-26T13:03:47.881Z,8692
2019-05-26T13:04:48.355Z,9716
2019-05-26T13:05:47.857Z,9944
2019-05-26T13:06:47.890Z,10084
2019-05-26T13:07:47.627Z,10212
2019-05-26T13:08:48.143Z,10180
2019-05-26T13:09:48.126Z,10208
2019-05-26T13:10:48.380Z,9728
2019-05-26T13:11:48.152Z,9732
2019-05-26T13:12:48.165Z,9484
2019-05-26T13:13:51.189Z,9280
2019-05-26T13:15:03.202Z,8892
2019-05-26T13:15:48.158Z,8672
2019-05-26T13:16:48.183Z,8192
2019-05-26T13:17:49.490Z,7640
2019-05-26T13:18:48.388Z,8124
2019-05-26T13:19:47.907Z,9216
2019-05-26T13:20:48.413Z,9856
2019-05-26T13:21:48.184Z,9736
2019-05-26T13:22:47.703Z,8756
2019-05-26T13:23:51.238Z,8556
2019-05-26T13:24:51.213Z,7508
2019-05-26T13:25:48.427Z,8580
2019-05-26T13:26:48.427Z,8528